CheckWX is a tool to help pilots better visualize weather data.  It is not intended as a substitute for an official pre-flight weather briefing.

00:46:18 UTC

ENSL METAR
Sleipner A Platform Heliport
Norway
Current

26 mins ago

ENSL 210020Z AUTO 21016KT 9000NDV NCD 09/07 Q1025 W05/S3
Observed
Apr-21 @ 00:20 UTC
Wind
  • 210° at 16 KTS
Visibility
Cloud Levels
  • Clear skies
Temperature
C / 48°F
Dewpoint
C / 45°F
Humidity
87%
Altimeter
30.27" Hg
Pressure
1024.92 hPa
Previous

56 mins ago

ENSL 202350Z AUTO 22014KT 8000NDV NCD 09/07 Q1026 W05/S3
Observed
Apr-20 @ 23:50 UTC
Wind
  • 220° at 14 KTS
Visibility
Cloud Levels
  • Clear skies
Temperature
C / 48°F
Dewpoint
C / 45°F
Humidity
87%
Altimeter
30.3" Hg
Pressure
1025.92 hPa
Previous

1 hour ago

ENSL 202320Z AUTO 22012KT 8000NDV FEW120/// 09/07 Q1026 W04/S3
Observed
Apr-20 @ 23:20 UTC
Wind
  • 220° at 12 KTS
Visibility
Cloud Levels
  • Few at 12,000' AGL
Temperature
C / 48°F
Dewpoint
C / 45°F
Humidity
87%
Altimeter
30.3" Hg
Pressure
1025.92 hPa